South Houston, TX (77587)

12:04 AM CDT on April 21, 2015 (GMT -0500)
London | | Change Station
CLOSE
Current Station
Personal Weather Station
Location: Pasadena, TX
Elevation: 39 ft
Nearby Weather Stations

Elev 39 ft 29.69 °N, 95.18 °W | Updated 56 minutes ago

Mostly Cloudy
Mostly Cloudy
61.5 °F
Feels Like 61.5 °F
N
0.0
Wind Variable Wind from South

Today
High -- | Low -- °F
--% Chance of Precip.
Yesterday
High -- | Low -- °F
Precip. -- in
6:48 AM 7:51 PM
Waxing Crescent, 8% visible
Pressure 30.01 in
Visibility 10.0 miles
Clouds Mostly Cloudy 15000 ft
Mostly Cloudy 25000 ft
Dew Point 54 °F
Humidity 75%
Rainfall in
Snow Depth Not available.
UV 0 out of 12
Pollen 8.40 out of 12
Air Quality Not available.
Flu Activity Local Activity
METAR KHOU 210453Z 00000KT 10SM BKN150 BKN250 19/12 A2999 RMK AO2 SLP161 T01890117

More Conditions Fewer Conditions

Pressure 30.01 in
Visibility 10.0 miles
Clouds Mostly Cloudy 15000 ft
Mostly Cloudy 25000 ft
Dew Point 54 °F
Humidity 75%
Rainfall in
Snow Depth Not available.
UV 0 out of 12
Pollen 8.40 out of 12
Air Quality Not available.
Flu Activity Local Activity
METAR KHOU 210453Z 00000KT 10SM BKN150 BKN250 19/12 A2999 RMK AO2 SLP161 T01890117

More Conditions Fewer Conditions

10-Day Weather Forecast

Almanac

Astronomy

Apr. 21, 2015 Rise Set
Actual Time
Civil Twilight
Nautical Twilight
Astronomical Twilight
Moon
Length of Visible Light
Length of Day
Tomorrow will be .
, % of the Moon is Illuminated

Today's Extremes

State Highs State Lows

Community

WunderPhotos

Upload Photos

1,815,316 photos uploaded!

WunderBlogs® & News

Nearby

Air Quality

  Air Quality AQ Index Pollutant
Not available.

Snow Depth

Station Depth Elevation

Earthquake Activity

City Distance Mag. Time & Date
Minimum magnitude displayed is 2.5.

Coastal Water Temperatures

Place Temperature

Stations

Nearby Weather Stations

Station Location Temp. Windchill Dew Point Humidity Wind Precip. Elev Updated Type